Time;durP1;ratioP1;P1;durP2;ratioP2;P2;SDS_P1;SDS_P2;PMS_P1;PMS_P2;Temp;Humidity;BMP_temperature;BMP_pressure;BME280_temperature;BME280_humidity;BME280_pressure;Samples;Min_cycle;Max_cycle;Signal;HPM_P1;HPM_P2
2024/02/17 00:00:51;;;;;;;4.85;3.75;;;;;;;4.82;100.00;98288.50;1225043;75;2908674;-64
2024/02/17 00:03:25;;;;;;;5.05;3.50;;;;;;;4.82;100.00;98282.31;1223332;75;2920714;-65
2024/02/17 00:06:00;;;;;;;4.00;3.60;;;;;;;4.80;100.00;98285.44;1223601;75;2912181;-64
2024/02/17 00:08:33;;;;;;;3.90;3.35;;;;;;;4.68;100.00;98280.66;1223530;75;2941076;-63
2024/02/17 00:11:06;;;;;;;4.25;3.30;;;;;;;4.78;100.00;98281.63;1224868;75;2916181;-65
2024/02/17 00:13:39;;;;;;;3.85;3.35;;;;;;;4.65;100.00;98287.69;1225201;75;2911113;-65
2024/02/17 00:16:12;;;;;;;4.00;3.10;;;;;;;4.75;100.00;98288.66;1224139;75;2936876;-66
2024/02/17 00:18:45;;;;;;;4.05;3.40;;;;;;;4.71;100.00;98285.25;1224468;75;2919774;-66
2024/02/17 00:21:21;;;;;;;4.25;3.20;;;;;;;4.80;100.00;98292.81;1225473;75;2917122;-65
2024/02/17 00:23:54;;;;;;;4.85;3.70;;;;;;;4.66;100.00;98285.75;1225440;75;2910733;-65
2024/02/17 00:26:26;;;;;;;3.70;3.20;;;;;;;4.57;100.00;98294.47;1225119;75;2912318;-67
2024/02/17 00:29:00;;;;;;;4.80;3.65;;;;;;;4.65;100.00;98290.41;1224296;75;2920504;-64
2024/02/17 00:31:33;;;;;;;3.20;2.90;;;;;;;4.69;100.00;98288.38;1225589;75;2910443;-65
2024/02/17 00:34:06;;;;;;;4.45;3.10;;;;;;;4.67;100.00;98288.03;1225089;75;2919787;-64
2024/02/17 00:36:41;;;;;;;4.10;3.30;;;;;;;4.67;100.00;98290.75;1224866;75;2909598;-65
2024/02/17 00:39:14;;;;;;;3.85;2.90;;;;;;;4.65;100.00;98298.53;1195213;75;5336023;-63
2024/02/17 00:41:47;;;;;;;3.10;2.65;;;;;;;4.62;100.00;98293.22;1223911;75;2917740;-65
2024/02/17 00:44:20;;;;;;;3.35;2.85;;;;;;;4.60;100.00;98292.84;1225233;75;2913969;-64
2024/02/17 00:46:53;;;;;;;3.70;2.90;;;;;;;4.51;100.00;98303.50;1225006;75;2916772;-64
2024/02/17 00:49:26;;;;;;;4.60;3.15;;;;;;;4.52;100.00;98291.47;1225623;75;2921453;-64
2024/02/17 00:52:01;;;;;;;4.20;3.40;;;;;;;4.25;100.00;98298.56;1225812;75;2912538;-65
2024/02/17 00:54:34;;;;;;;5.00;3.50;;;;;;;4.25;100.00;98303.22;1226020;75;2944794;-65
2024/02/17 00:57:07;;;;;;;4.50;3.70;;;;;;;4.23;100.00;98297.44;1225832;75;2909355;-63
2024/02/17 00:59:40;;;;;;;4.30;3.80;;;;;;;4.29;100.00;98298.50;1224998;75;2935984;-63
2024/02/17 01:02:13;;;;;;;4.55;3.50;;;;;;;4.30;100.00;98291.88;1226348;75;2918897;-65
2024/02/17 01:04:46;;;;;;;3.80;3.15;;;;;;;4.33;100.00;98303.84;1225092;75;2915904;-65
2024/02/17 01:07:21;;;;;;;3.35;2.85;;;;;;;4.36;100.00;98290.22;1224977;75;2913937;-62
2024/02/17 01:09:54;;;;;;;3.35;2.95;;;;;;;4.34;100.00;98298.00;1226045;75;2914363;-64
2024/02/17 01:12:28;;;;;;;3.55;3.00;;;;;;;4.25;100.00;98293.13;1225912;75;2916055;-63
2024/02/17 01:15:02;;;;;;;4.25;3.40;;;;;;;4.20;100.00;98292.88;1225721;75;2909857;-65
2024/02/17 01:17:35;;;;;;;4.25;3.85;;;;;;;4.08;100.00;98291.53;1226267;75;2914173;-63
2024/02/17 01:20:10;;;;;;;5.15;4.05;;;;;;;4.05;100.00;98290.44;1225556;75;2918036;-65
2024/02/17 01:22:45;;;;;;;5.90;3.80;;;;;;;3.93;100.00;98291.06;1226036;75;2912479;-66
2024/02/17 01:25:20;;;;;;;5.20;4.00;;;;;;;4.00;100.00;98290.16;1225660;75;2927335;-65
2024/02/17 01:27:53;;;;;;;5.40;4.40;;;;;;;4.01;100.00;98294.38;1224742;75;2912601;-64
2024/02/17 01:30:26;;;;;;;5.20;4.20;;;;;;;3.97;100.00;98290.97;1225916;75;2915037;-67
2024/02/17 01:32:59;;;;;;;4.45;3.50;;;;;;;3.99;100.00;98294.03;1224223;75;2921837;-67
2024/02/17 01:35:31;;;;;;;4.95;4.05;;;;;;;4.07;100.00;98290.03;1226480;75;2911547;-64
2024/02/17 01:38:08;;;;;;;4.10;3.50;;;;;;;4.10;100.00;98288.44;1226055;75;2919910;-65
2024/02/17 01:40:41;;;;;;;4.05;3.10;;;;;;;4.07;100.00;98283.84;1226217;75;2912632;-64
2024/02/17 01:43:14;;;;;;;3.95;3.25;;;;;;;4.09;100.00;98290.38;1226208;75;2919100;-64
2024/02/17 01:45:46;;;;;;;4.40;3.70;;;;;;;3.93;100.00;98291.06;1226076;75;2915623;-64
2024/02/17 01:48:19;;;;;;;4.15;3.60;;;;;;;3.93;100.00;98295.72;1226044;75;2914940;-65
2024/02/17 01:50:52;;;;;;;5.40;3.95;;;;;;;3.92;100.00;98283.31;1225719;75;2911429;-64
2024/02/17 01:53:29;;;;;;;4.70;3.50;;;;;;;3.92;100.00;98291.47;1225912;75;2900577;-67
2024/02/17 01:56:02;;;;;;;4.45;3.85;;;;;;;3.82;100.00;98293.19;1226841;75;2914846;-65
2024/02/17 01:58:35;;;;;;;4.55;3.50;;;;;;;3.89;100.00;98292.28;1225854;75;2913471;-67
2024/02/17 02:01:08;;;;;;;3.95;3.40;;;;;;;3.90;100.00;98299.25;1225724;75;2916799;-65
2024/02/17 02:03:41;;;;;;;3.85;3.30;;;;;;;3.89;100.00;98290.34;1225911;75;2917160;-65
2024/02/17 02:06:15;;;;;;;3.50;2.70;;;;;;;3.93;100.00;98293.00;1224861;75;2914457;-65
2024/02/17 02:08:51;;;;;;;4.05;3.05;;;;;;;3.79;100.00;98288.59;1224861;75;2914125;-66
2024/02/17 02:11:24;;;;;;;3.15;2.85;;;;;;;3.81;100.00;98291.66;1225195;75;2922456;-66
2024/02/17 02:14:14;;;;;;;3.05;2.65;;;;;;;3.75;100.00;98296.00;1225499;75;2913197;-65
2024/02/17 02:16:48;;;;;;;3.60;2.85;;;;;;;3.69;100.00;98297.69;1224852;75;2916968;-64
2024/02/17 02:19:21;;;;;;;3.80;3.30;;;;;;;3.50;100.00;98286.38;1226465;75;2915904;-64
2024/02/17 02:21:54;;;;;;;4.50;3.65;;;;;;;3.66;100.00;98288.44;1225189;75;2909997;-65
2024/02/17 02:24:30;;;;;;;3.95;3.10;;;;;;;3.70;100.00;98286.41;1224739;75;2923357;-62
2024/02/17 02:27:06;;;;;;;3.65;2.75;;;;;;;3.61;100.00;98288.91;1224960;75;2919109;-65
2024/02/17 02:29:39;;;;;;;4.40;3.20;;;;;;;3.54;100.00;98283.63;1223997;75;2921019;-66
2024/02/17 02:32:12;;;;;;;3.60;2.95;;;;;;;3.59;100.00;98286.63;1224791;75;2906943;-64
2024/02/17 02:34:45;;;;;;;3.65;2.90;;;;;;;3.65;100.00;98289.59;1224898;75;2923093;-63
2024/02/17 02:37:17;;;;;;;3.40;3.10;;;;;;;3.47;100.00;98289.91;1224334;75;2912266;-64
2024/02/17 02:39:50;;;;;;;3.85;3.00;;;;;;;3.50;100.00;98277.50;1224839;75;2910763;-65
2024/02/17 02:42:28;;;;;;;3.70;3.30;;;;;;;3.35;100.00;98279.69;1224967;75;2920815;-66
2024/02/17 02:45:01;;;;;;;4.55;3.50;;;;;;;3.28;100.00;98290.63;1224522;75;2918597;-64
2024/02/17 02:47:33;;;;;;;4.55;3.40;;;;;;;3.25;100.00;98288.72;1225298;75;2935965;-64
2024/02/17 02:50:08;;;;;;;5.05;3.40;;;;;;;3.33;100.00;98282.03;1223856;75;2919819;-64
2024/02/17 02:52:41;;;;;;;4.55;3.15;;;;;;;3.27;100.00;98283.66;1225622;75;2916326;-63
2024/02/17 02:55:14;;;;;;;3.80;3.10;;;;;;;3.28;100.00;98291.38;1225200;75;2919018;-63
2024/02/17 02:57:49;;;;;;;4.80;2.50;;;;;;;3.31;100.00;98292.50;1224259;75;2921686;-64
2024/02/17 03:00:23;;;;;;;6.85;2.90;;;;;;;3.18;100.00;98284.97;1225493;75;2843752;-63
2024/02/17 03:02:56;;;;;;;3.90;2.95;;;;;;;3.29;100.00;98292.91;1225083;75;2917129;-65
2024/02/17 03:05:29;;;;;;;2.85;2.55;;;;;;;3.27;100.00;98292.56;1224000;75;2955224;-63
2024/02/17 03:08:03;;;;;;;3.65;2.70;;;;;;;3.18;100.00;98292.31;1225070;75;2912477;-65
2024/02/17 03:10:36;;;;;;;3.95;2.85;;;;;;;3.14;100.00;98295.06;1223447;75;2937785;-64
2024/02/17 03:13:11;;;;;;;2.75;2.40;;;;;;;3.19;100.00;98291.13;1225034;75;2913339;-65
2024/02/17 03:15:44;;;;;;;3.45;2.65;;;;;;;3.14;100.00;98294.31;1224727;75;2916784;-63
2024/02/17 03:18:19;;;;;;;2.90;2.35;;;;;;;3.09;100.00;98297.47;1224369;75;2916052;-64
2024/02/17 03:20:52;;;;;;;3.80;2.60;;;;;;;3.01;100.00;98307.63;1225026;75;2914097;-63
2024/02/17 03:23:26;;;;;;;3.75;3.15;;;;;;;2.95;100.00;98312.72;1224288;75;2917833;-64
2024/02/17 03:25:59;;;;;;;3.00;2.70;;;;;;;2.97;100.00;98310.38;1223461;75;2929310;-62
2024/02/17 03:28:35;;;;;;;3.75;2.90;;;;;;;2.88;100.00;98318.22;1224589;75;2912995;-63
2024/02/17 03:31:10;;;;;;;3.95;3.45;;;;;;;2.95;100.00;98304.59;1224983;75;2915018;-61
2024/02/17 03:33:43;;;;;;;3.95;3.25;;;;;;;2.89;100.00;98316.31;1225670;75;2918540;-64
2024/02/17 03:36:16;;;;;;;3.50;3.10;;;;;;;2.74;100.00;98321.91;1224302;75;2920769;-62
2024/02/17 03:38:49;;;;;;;3.85;2.95;;;;;;;2.72;100.00;98313.44;1223970;75;2924074;-66
2024/02/17 03:41:23;;;;;;;4.55;3.35;;;;;;;2.62;100.00;98325.16;1224893;75;2918658;-65
2024/02/17 03:43:58;;;;;;;4.90;4.40;;;;;;;2.67;100.00;98321.22;1224460;75;2921111;-63
2024/02/17 03:46:32;;;;;;;4.00;3.40;;;;;;;2.75;100.00;98322.66;1224559;75;2918588;-66
2024/02/17 03:49:04;;;;;;;4.85;3.40;;;;;;;2.72;100.00;98328.91;1223827;75;2917352;-64
2024/02/17 03:51:37;;;;;;;3.80;3.45;;;;;;;2.61;100.00;98331.72;1224081;75;2962544;-65
2024/02/17 03:54:10;;;;;;;4.25;3.50;;;;;;;2.45;100.00;98326.88;1225435;75;2911547;-64
2024/02/17 03:56:43;;;;;;;4.05;3.25;;;;;;;2.52;100.00;98326.78;1224425;75;2926633;-65
2024/02/17 03:59:19;;;;;;;4.75;3.25;;;;;;;2.42;100.00;98332.34;1223560;75;2917975;-62
2024/02/17 04:01:55;;;;;;;3.85;3.30;;;;;;;2.42;100.00;98340.44;1225017;75;2910642;-63
2024/02/17 04:04:28;;;;;;;3.90;3.05;;;;;;;2.44;100.00;98335.41;1223861;75;2919897;-63
2024/02/17 04:07:01;;;;;;;2.75;2.45;;;;;;;2.36;100.00;98345.53;1224572;75;2913586;-65
2024/02/17 04:09:34;;;;;;;3.75;3.10;;;;;;;2.22;100.00;98343.75;1224048;75;2909303;-65
2024/02/17 04:12:08;;;;;;;3.10;2.80;;;;;;;2.37;100.00;98344.34;1223738;75;2925534;-66
2024/02/17 04:14:43;;;;;;;2.95;2.30;;;;;;;2.33;100.00;98341.72;1224843;75;2880011;-65
2024/02/17 04:17:17;;;;;;;3.95;2.50;;;;;;;2.33;100.00;98347.13;1222270;67;2927209;-63
2024/02/17 04:19:49;;;;;;;3.00;2.50;;;;;;;2.29;100.00;98346.38;1220486;75;2921874;-66
2024/02/17 04:22:24;;;;;;;3.00;2.50;;;;;;;2.16;100.00;98345.34;1223090;75;2924686;-64
2024/02/17 04:24:57;;;;;;;4.05;3.05;;;;;;;2.04;100.00;98356.66;1223814;75;2943796;-63
2024/02/17 04:27:30;;;;;;;3.05;2.75;;;;;;;2.02;100.00;98359.00;1224518;75;2913105;-66
2024/02/17 04:30:05;;;;;;;3.35;3.00;;;;;;;1.96;100.00;98355.22;1224920;75;2920172;-66
2024/02/17 04:32:38;;;;;;;3.05;2.75;;;;;;;2.03;100.00;98358.59;1224845;75;2917199;-66
2024/02/17 04:35:12;;;;;;;3.20;2.70;;;;;;;2.03;100.00;98360.53;1224108;75;2923816;-65
2024/02/17 04:37:45;;;;;;;3.95;2.80;;;;;;;1.97;100.00;98354.03;1224062;75;2917304;-65
2024/02/17 04:40:18;;;;;;;2.80;2.20;;;;;;;2.04;100.00;98357.44;1222267;75;2918676;-64
2024/02/17 04:42:54;;;;;;;2.85;2.35;;;;;;;2.02;100.00;98362.47;1224410;75;2922166;-64
2024/02/17 04:45:29;;;;;;;3.10;2.25;;;;;;;1.92;100.00;98366.81;1224333;75;2921808;-65
2024/02/17 04:48:02;;;;;;;3.85;3.20;;;;;;;1.83;100.00;98368.44;1224304;75;2923364;-64
2024/02/17 04:50:35;;;;;;;3.95;3.25;;;;;;;1.81;100.00;98363.44;1223917;75;2956690;-65
2024/02/17 04:53:08;;;;;;;3.40;3.00;;;;;;;1.89;100.00;98364.13;1224643;75;2914170;-65
2024/02/17 04:55:41;;;;;;;3.45;2.90;;;;;;;1.90;100.00;98371.84;1224518;75;2913711;-64
2024/02/17 04:58:17;;;;;;;3.95;2.95;;;;;;;1.68;100.00;98363.16;1222944;75;2915424;-64
2024/02/17 05:00:52;;;;;;;4.35;3.80;;;;;;;1.69;100.00;98367.38;1223853;75;2915983;-64
2024/02/17 05:03:26;;;;;;;3.75;3.30;;;;;;;1.84;100.00;98369.97;1223475;75;2927324;-63
2024/02/17 05:05:59;;;;;;;5.80;4.20;;;;;;;1.70;100.00;98363.50;1224308;75;2919368;-63
2024/02/17 05:08:32;;;;;;;4.75;3.70;;;;;;;1.68;100.00;98376.66;1222356;75;2922575;-64
2024/02/17 05:11:05;;;;;;;4.80;4.05;;;;;;;1.80;100.00;98382.72;1224238;75;2923095;-65
2024/02/17 05:13:38;;;;;;;4.65;3.50;;;;;;;1.82;100.00;98383.09;1223648;75;2924188;-64
2024/02/17 05:16:13;;;;;;;3.85;3.45;;;;;;;1.80;100.00;98383.47;1224267;75;2916906;-63
2024/02/17 05:18:46;;;;;;;3.30;2.70;;;;;;;1.73;100.00;98386.25;1223704;75;2918533;-65
2024/02/17 05:21:20;;;;;;;5.25;3.05;;;;;;;1.65;100.00;98387.47;1223970;75;2918843;-63
2024/02/17 05:23:53;;;;;;;3.50;3.05;;;;;;;1.67;100.00;98387.84;1223824;75;2918381;-63
2024/02/17 05:26:26;;;;;;;4.20;3.60;;;;;;;1.51;100.00;98387.59;1221452;75;2919861;-64
2024/02/17 05:28:58;;;;;;;4.10;3.60;;;;;;;1.67;100.00;98394.00;1222967;75;2917597;-63
2024/02/17 05:31:34;;;;;;;3.90;3.15;;;;;;;1.53;100.00;98387.97;1222489;75;2922646;-63
2024/02/17 05:34:07;;;;;;;4.55;3.70;;;;;;;1.69;100.00;98399.03;1224244;75;2918353;-63
2024/02/17 05:36:40;;;;;;;3.95;3.30;;;;;;;1.66;100.00;98389.00;1221838;75;2925728;-62
2024/02/17 05:39:12;;;;;;;3.10;2.80;;;;;;;1.67;100.00;98394.00;1222985;75;2918690;-60
2024/02/17 05:41:45;;;;;;;3.60;3.25;;;;;;;1.54;100.00;98394.88;1222450;75;2920841;-65
2024/02/17 05:44:18;;;;;;;3.65;3.00;;;;;;;1.63;100.00;98392.50;1223108;75;2918578;-66
2024/02/17 05:46:54;;;;;;;3.35;3.05;;;;;;;1.63;100.00;98390.56;1224123;67;2918315;-63
2024/02/17 05:49:26;;;;;;;3.10;2.60;;;;;;;1.61;100.00;98394.81;1223305;75;2916887;-62
2024/02/17 05:51:59;;;;;;;3.30;3.00;;;;;;;1.59;100.00;98405.25;1223777;75;2923508;-62
2024/02/17 05:54:32;;;;;;;4.95;3.75;;;;;;;1.62;100.00;98410.63;1223758;75;2917169;-64
2024/02/17 05:57:05;;;;;;;4.85;3.70;;;;;;;1.65;100.00;98409.81;1223236;75;2920942;-62
2024/02/17 05:59:38;;;;;;;4.85;3.95;;;;;;;1.51;100.00;98412.63;1222956;75;2928969;-62
2024/02/17 06:02:13;;;;;;;4.40;3.90;;;;;;;1.60;100.00;98420.28;1223385;75;2919598;-63
2024/02/17 06:04:46;;;;;;;3.80;3.40;;;;;;;1.68;100.00;98416.34;1223935;75;2917441;-63
2024/02/17 06:07:21;;;;;;;3.20;2.90;;;;;;;1.75;100.00;98416.31;1222575;75;2922618;-65
2024/02/17 06:09:54;;;;;;;4.20;2.65;;;;;;;1.75;100.00;98421.72;1222559;75;2937428;-64
2024/02/17 06:12:27;;;;;;;4.15;3.55;;;;;;;1.64;100.00;98418.34;1223214;75;2916525;-63
2024/02/17 06:15:00;;;;;;;4.25;3.20;;;;;;;1.80;100.00;98434.78;1224542;75;2921138;-64
2024/02/17 06:17:42;;;;;;;3.50;2.70;;;;;;;1.91;100.00;98432.78;1223274;75;2923538;-63
2024/02/17 06:23:00;;;;;;;6.85;3.85;;;;;;;1.97;100.00;98441.19;1222965;75;2930057;-64
2024/02/17 06:25:33;;;;;;;4.45;3.60;;;;;;;2.10;100.00;98442.25;1223585;75;2926885;-66
2024/02/17 06:28:06;;;;;;;4.40;3.35;;;;;;;2.18;100.00;98451.06;1224232;75;2920312;-65
2024/02/17 06:30:42;;;;;;;4.85;3.90;;;;;;;2.21;100.00;98454.91;1221836;75;2917454;-63
2024/02/17 06:33:17;;;;;;;5.45;3.95;;;;;;;2.31;100.00;98454.06;1223444;75;2921409;-64
2024/02/17 06:35:50;;;;;;;3.85;3.20;;;;;;;2.56;100.00;98454.56;1225122;75;2924219;-64
2024/02/17 06:38:23;;;;;;;4.55;2.90;;;;;;;2.64;100.00;98460.66;1223649;75;2919378;-64
2024/02/17 06:40:56;;;;;;;3.30;3.00;;;;;;;2.69;100.00;98468.31;1223534;75;2930888;-66
2024/02/17 06:43:29;;;;;;;5.85;4.45;;;;;;;2.97;100.00;98469.94;1223392;75;2926951;-63
2024/02/17 06:46:02;;;;;;;4.35;3.50;;;;;;;3.42;100.00;98479.84;1224821;75;2929120;-62
2024/02/17 06:48:38;;;;;;;5.55;4.55;;;;;;;3.88;100.00;98480.38;1224176;75;2924011;-65
2024/02/17 06:51:13;;;;;;;4.95;3.45;;;;;;;4.17;100.00;98472.56;1224918;75;2919402;-65
2024/02/17 06:53:46;;;;;;;5.55;4.40;;;;;;;3.99;100.00;98483.66;1224492;75;2919313;-67
2024/02/17 06:56:19;;;;;;;5.65;5.00;;;;;;;3.88;100.00;98485.78;1223377;75;2916310;-61
2024/02/17 06:58:52;;;;;;;7.05;5.95;;;;;;;3.68;100.00;98482.97;1224387;75;2918159;-65
2024/02/17 07:01:25;;;;;;;8.50;7.50;;;;;;;3.66;100.00;98488.81;1223308;75;2920793;-66
2024/02/17 07:04:00;;;;;;;8.70;7.15;;;;;;;4.95;100.00;98480.47;1224217;75;2923256;-62
2024/02/17 07:06:33;;;;;;;10.55;8.70;;;;;;;6.66;100.00;98486.72;1224734;75;2915949;-66
2024/02/17 07:09:06;;;;;;;8.30;7.30;;;;;;;8.66;91.16;98488.19;1223618;75;2920816;-65
2024/02/17 07:11:39;;;;;;;7.20;6.05;;;;;;;8.78;84.75;98496.75;1223832;75;2947757;-66
2024/02/17 07:14:12;;;;;;;7.55;6.15;;;;;;;7.86;89.11;98493.84;1223567;75;2922475;-64
2024/02/17 07:16:45;;;;;;;6.85;5.00;;;;;;;7.15;95.23;98492.03;1223666;75;2924418;-64
2024/02/17 07:19:20;;;;;;;5.60;5.00;;;;;;;6.37;100.00;98501.06;1222241;75;2927315;-65
2024/02/17 07:21:53;;;;;;;6.25;4.50;;;;;;;7.27;100.00;98495.97;1208190;75;4127096;-65
2024/02/17 07:24:27;;;;;;;6.85;4.95;;;;;;;9.09;84.59;98489.44;1223241;75;2928822;-64
2024/02/17 07:27:00;;;;;;;6.55;5.40;;;;;;;10.10;78.75;98500.09;1223458;75;2916163;-62
2024/02/17 07:29:35;;;;;;;5.30;4.20;;;;;;;10.38;76.20;98498.19;1222459;75;2926411;-65
2024/02/17 07:32:10;;;;;;;6.00;4.95;;;;;;;10.86;72.55;98503.25;1223559;75;2923097;-68
2024/02/17 07:34:47;;;;;;;5.80;4.75;;;;;;;10.38;74.50;98502.91;1223758;75;2913485;-66
2024/02/17 07:37:20;;;;;;;5.70;5.05;;;;;;;9.37;78.21;98503.25;1223200;75;2928682;-65
2024/02/17 07:39:54;;;;;;;5.90;4.45;;;;;;;8.76;82.67;98505.41;1221845;75;2921949;-65
2024/02/17 07:42:28;;;;;;;6.45;4.95;;;;;;;8.19;89.83;98509.97;1223088;75;2924434;-64
2024/02/17 07:45:01;;;;;;;5.15;4.35;;;;;;;8.29;90.11;98512.34;1224302;75;2922621;-65
2024/02/17 07:47:37;;;;;;;4.30;3.50;;;;;;;8.29;90.92;98511.59;1223966;75;2915584;-67
2024/02/17 07:50:13;;;;;;;3.95;3.00;;;;;;;8.92;88.09;98507.19;1221571;75;2930953;-65
2024/02/17 07:52:46;;;;;;;4.00;3.05;;;;;;;9.89;81.79;98506.41;1223409;75;2931354;-66
2024/02/17 07:55:18;;;;;;;3.95;3.05;;;;;;;11.12;77.70;98511.16;1222037;75;2920443;-67
2024/02/17 07:57:51;;;;;;;5.60;4.35;;;;;;;13.18;69.02;98505.28;1223844;75;2917011;-66
2024/02/17 08:00:26;;;;;;;6.10;4.85;;;;;;;13.85;64.94;98507.63;1223165;75;2917840;-67
2024/02/17 08:02:58;;;;;;;6.15;4.60;;;;;;;14.76;62.24;98512.41;1192765;75;5367800;-67
2024/02/17 08:05:34;;;;;;;6.85;5.15;;;;;;;15.01;60.36;98514.47;1223243;75;2919390;-65
2024/02/17 08:08:07;;;;;;;8.45;5.70;;;;;;;17.06;56.85;98512.63;1223181;75;2931995;-66
2024/02/17 08:10:40;;;;;;;6.25;4.35;;;;;;;17.55;53.47;98507.66;1223229;75;2919344;-67
2024/02/17 08:13:13;;;;;;;7.35;5.50;;;;;;;17.06;53.23;98512.63;1224064;75;2912768;-66
2024/02/17 08:15:46;;;;;;;12.45;7.10;;;;;;;15.11;57.58;98517.81;1224434;75;2920780;-67
2024/02/17 08:18:21;;;;;;;9.70;7.25;;;;;;;15.43;59.06;98521.38;1223346;75;2920639;-65
2024/02/17 08:20:57;;;;;;;7.75;6.00;;;;;;;16.08;56.46;98518.16;1224152;75;2914905;-67
2024/02/17 08:23:31;;;;;;;10.80;6.20;;;;;;;14.27;60.74;98520.28;1220781;75;2920193;-65
2024/02/17 08:26:05;;;;;;;8.75;6.00;;;;;;;13.32;62.54;98525.03;1223145;75;2916928;-65
2024/02/17 08:28:38;;;;;;;8.65;5.90;;;;;;;13.29;63.26;98523.97;1222460;75;2925987;-66
2024/02/17 08:31:11;;;;;;;8.30;6.05;;;;;;;12.90;65.51;98525.97;1223312;75;2927969;-65
2024/02/17 08:33:43;;;;;;;8.05;5.75;;;;;;;11.60;70.50;98525.09;1223148;75;2916234;-64
2024/02/17 08:36:19;;;;;;;11.60;6.70;;;;;;;11.71;69.76;98525.34;1222027;75;2921574;-65
2024/02/17 08:38:52;;;;;;;9.30;6.60;;;;;;;11.30;71.92;98525.63;1222223;75;2931293;-66
2024/02/17 08:41:24;;;;;;;8.75;6.25;;;;;;;12.45;69.74;98525.06;1221373;75;2923697;-67
2024/02/17 08:43:57;;;;;;;8.90;6.80;;;;;;;12.02;69.42;98529.84;1221849;75;2919412;-66
2024/02/17 08:46:30;;;;;;;9.25;6.45;;;;;;;12.95;67.66;98528.81;1222891;75;2929428;-69
2024/02/17 08:49:03;;;;;;;9.35;6.50;;;;;;;13.56;64.48;98524.94;1221894;75;2916174;-67
2024/02/17 08:51:39;;;;;;;7.60;6.35;;;;;;;13.99;64.45;98525.38;1223273;75;2910374;-68
2024/02/17 08:54:16;;;;;;;9.05;6.70;;;;;;;12.55;66.67;98530.03;1224162;75;2923575;-65
2024/02/17 08:56:49;;;;;;;9.00;6.30;;;;;;;12.91;66.14;98532.97;1223701;75;2928981;-67
2024/02/17 08:59:21;;;;;;;9.60;7.30;;;;;;;14.41;63.33;98529.72;1221962;75;2920078;-65
2024/02/17 09:01:54;;;;;;;9.05;6.35;;;;;;;14.41;62.06;98524.97;1223785;75;2922364;-66
2024/02/17 09:04:27;;;;;;;7.90;5.85;;;;;;;13.28;64.35;98541.72;1223086;75;2919040;-67
2024/02/17 09:07:02;;;;;;;11.80;5.85;;;;;;;12.77;66.05;98534.44;1222885;75;2914042;-68
2024/02/17 09:09:35;;;;;;;8.60;5.95;;;;;;;12.60;67.13;98538.84;1222719;75;2924614;-68
2024/02/17 09:12:09;;;;;;;8.75;6.45;;;;;;;11.96;68.77;98543.44;1223128;75;2922978;-65
2024/02/17 09:14:42;;;;;;;10.65;6.95;;;;;;;11.70;70.53;98543.78;1224652;75;2921740;-67
2024/02/17 09:17:16;;;;;;;9.65;6.30;;;;;;;12.38;70.27;98541.88;1221269;75;2952706;-66
2024/02/17 09:19:49;;;;;;;6.70;5.00;;;;;;;13.39;65.49;98541.16;1222789;75;2920626;-66
2024/02/17 09:22:24;;;;;;;8.90;5.85;;;;;;;12.35;68.17;98544.31;1224273;75;2922729;-66
2024/02/17 09:24:57;;;;;;;8.80;6.30;;;;;;;12.57;68.05;98548.78;1222176;75;2924525;-66
2024/02/17 09:27:30;;;;;;;12.10;7.70;;;;;;;11.67;69.98;98546.72;1221995;75;2922976;-66
2024/02/17 09:30:04;;;;;;;8.70;6.15;;;;;;;12.57;68.93;98540.53;1220771;75;2923839;-65
2024/02/17 09:32:37;;;;;;;13.20;7.10;;;;;;;12.44;68.59;98543.53;1222835;75;2931470;-66
2024/02/17 09:35:10;;;;;;;9.40;5.75;;;;;;;13.20;66.86;98555.06;1222704;75;2918889;-66
2024/02/17 09:37:46;;;;;;;10.00;6.50;;;;;;;14.60;64.69;98546.78;1217034;75;2916875;-65
2024/02/17 09:40:20;;;;;;;7.45;5.45;;;;;;;15.72;60.54;98538.97;1221233;75;2920690;-66
2024/02/17 09:42:52;;;;;;;8.90;6.55;;;;;;;13.96;62.76;98548.34;1223664;75;2918632;-66
2024/02/17 09:45:26;;;;;;;12.45;5.75;;;;;;;13.46;63.43;98560.03;1223133;75;2918610;-66
2024/02/17 09:48:01;;;;;;;7.95;5.35;;;;;;;13.15;65.23;98563.94;1223936;75;2922886;-68
2024/02/17 09:50:34;;;;;;;9.05;5.85;;;;;;;13.97;63.93;98563.63;1223997;75;2905366;-68
2024/02/17 09:53:12;;;;;;;8.45;5.55;;;;;;;13.58;63.79;98563.72;1224322;75;2920935;-65
2024/02/17 09:55:46;;;;;;;9.00;6.15;;;;;;;12.95;66.41;98564.56;1222467;75;2923670;-65
2024/02/17 09:58:19;;;;;;;8.70;6.05;;;;;;;12.89;65.79;98568.41;1219726;75;2933153;-65
2024/02/17 10:00:52;;;;;;;9.05;5.60;;;;;;;13.20;66.34;98559.78;1221167;75;2930437;-66
2024/02/17 10:03:25;;;;;;;6.50;4.90;;;;;;;13.73;64.14;98572.75;1223402;75;2917831;-65
2024/02/17 10:05:58;;;;;;;7.90;5.80;;;;;;;13.13;65.53;98571.91;1222926;75;2934033;-67
2024/02/17 10:08:33;;;;;;;8.65;6.30;;;;;;;12.82;66.66;98572.28;1223297;75;2914712;-65
2024/02/17 10:11:07;;;;;;;8.65;6.05;;;;;;;12.70;66.99;98576.78;1221956;75;2928545;-67
2024/02/17 10:13:40;;;;;;;8.45;5.80;;;;;;;13.10;67.90;98585.81;1222733;75;2916184;-66
2024/02/17 10:16:16;;;;;;;11.35;6.20;;;;;;;12.86;68.10;98586.59;1221682;75;2933761;-68
2024/02/17 10:18:51;;;;;;;7.95;5.60;;;;;;;13.26;67.62;98581.88;1221879;75;2931481;-66
2024/02/17 10:21:24;;;;;;;8.80;6.25;;;;;;;12.82;68.22;98585.25;1223561;75;2915862;-65
2024/02/17 10:23:59;;;;;;;7.55;5.25;;;;;;;13.52;65.95;98584.91;1222892;75;2934115;-64
2024/02/17 10:26:32;;;;;;;7.60;5.30;;;;;;;13.30;66.12;98586.00;1223961;75;2921565;-66
2024/02/17 10:29:05;;;;;;;8.35;5.30;;;;;;;13.43;66.84;98585.72;1222922;75;2927185;-67
2024/02/17 10:31:38;;;;;;;10.10;7.30;;;;;;;12.81;68.28;98595.50;1223063;75;2923964;-65
2024/02/17 10:34:10;;;;;;;10.00;8.00;;;;;;;12.82;69.34;98590.75;1223488;75;2928719;-67
2024/02/17 10:36:44;;;;;;;11.30;7.95;;;;;;;12.59;69.82;98593.03;1221863;75;2983104;-66
2024/02/17 10:39:20;;;;;;;10.65;7.05;;;;;;;12.65;69.62;98591.16;1222338;75;2927259;-66
2024/02/17 10:41:53;;;;;;;10.05;7.35;;;;;;;12.54;70.17;98601.91;1219389;75;2930886;-65
2024/02/17 10:44:28;;;;;;;9.65;6.55;;;;;;;13.21;68.42;98592.31;1222309;75;2921386;-67
2024/02/17 10:47:02;;;;;;;11.90;7.50;;;;;;;12.84;69.23;98593.78;1221286;75;2926241;-68
2024/02/17 10:49:43;;;;;;;7.75;6.05;;;;;;;12.91;69.54;98591.44;1222939;75;2913642;-65
2024/02/17 10:52:23;;;;;;;11.40;7.05;;;;;;;12.48;69.98;98592.78;1223011;75;2924211;-66
2024/02/17 10:55:04;;;;;;;10.35;7.40;;;;;;;12.47;69.80;98594.75;1222810;75;2926618;-66
2024/02/17 10:57:47;;;;;;;9.00;6.20;;;;;;;12.18;70.36;98589.88;1223336;75;2925867;-65
2024/02/17 11:00:21;;;;;;;8.15;5.75;;;;;;;12.24;70.26;98596.25;1222563;75;2921785;-66
2024/02/17 11:02:58;;;;;;;8.90;6.35;;;;;;;12.27;71.63;98600.81;1223661;75;2916135;-65
2024/02/17 11:05:32;;;;;;;8.10;5.85;;;;;;;12.30;70.89;98597.13;1223249;75;2922578;-67
2024/02/17 11:08:05;;;;;;;10.50;6.00;;;;;;;12.31;72.30;98595.91;1223291;75;2924973;-67
2024/02/17 11:10:43;;;;;;;8.05;6.05;;;;;;;12.33;70.84;98598.94;1223036;75;2931762;-66
2024/02/17 11:13:27;;;;;;;9.80;6.10;;;;;;;12.22;72.44;98597.91;1224208;75;2926733;-64
2024/02/17 11:16:04;;;;;;;8.60;5.85;;;;;;;12.24;72.95;98599.00;1223374;75;2921720;-67
2024/02/17 11:18:40;;;;;;;8.05;5.55;;;;;;;12.26;72.47;98599.28;1223124;75;2924777;-66
2024/02/17 11:21:14;;;;;;;9.95;6.75;;;;;;;12.36;72.93;98610.97;1225279;75;2921828;-65
2024/02/17 11:23:47;;;;;;;10.75;6.15;;;;;;;12.44;72.71;98603.94;1223682;75;2918699;-66
2024/02/17 11:26:25;;;;;;;8.65;6.25;;;;;;;12.32;73.99;98600.19;1223446;75;2913459;-65
2024/02/17 11:28:59;;;;;;;8.20;5.95;;;;;;;12.70;74.09;98603.47;1223914;75;2919986;-65
2024/02/17 11:31:33;;;;;;;9.30;5.85;;;;;;;12.60;73.09;98602.78;1224430;75;2923892;-65
2024/02/17 11:34:07;;;;;;;9.20;5.85;;;;;;;12.45;72.31;98599.97;1223556;75;2920611;-65
2024/02/17 11:36:41;;;;;;;7.00;5.75;;;;;;;12.87;73.29;98607.38;1222511;75;2914712;-66
2024/02/17 11:39:14;;;;;;;9.80;6.65;;;;;;;12.64;72.80;98608.88;1222194;75;2921668;-67
2024/02/17 11:41:51;;;;;;;8.30;5.45;;;;;;;12.92;72.34;98605.97;1223498;75;2922390;-65
2024/02/17 11:44:24;;;;;;;7.75;5.40;;;;;;;12.85;74.16;98611.81;1223954;75;2914060;-66
2024/02/17 11:46:56;;;;;;;6.75;4.70;;;;;;;13.16;72.63;98606.69;1223768;75;2913044;-67
2024/02/17 11:49:34;;;;;;;6.80;4.70;;;;;;;13.08;71.36;98604.78;1224199;75;2915025;-65